sensor_id;sensor_type;location;lat;lon;timestamp;P1;durP1;ratioP1;P2;durP2;ratioP2
42124;SDS011;27787;44.594;11.046;2023-11-22T00:02:35;13.23;;;7.35;;
42124;SDS011;27787;44.594;11.046;2023-11-22T00:05:21;11.30;;;7.53;;
42124;SDS011;27787;44.594;11.046;2023-11-22T00:08:05;13.35;;;7.72;;
42124;SDS011;27787;44.594;11.046;2023-11-22T00:10:49;18.70;;;8.27;;
42124;SDS011;27787;44.594;11.046;2023-11-22T00:13:33;15.77;;;7.93;;
42124;SDS011;27787;44.594;11.046;2023-11-22T00:16:18;16.77;;;9.15;;
42124;SDS011;27787;44.594;11.046;2023-11-22T00:19:02;16.05;;;7.57;;
42124;SDS011;27787;44.594;11.046;2023-11-22T00:21:46;14.23;;;7.95;;
42124;SDS011;27787;44.594;11.046;2023-11-22T00:24:29;15.48;;;7.30;;
42124;SDS011;27787;44.594;11.046;2023-11-22T00:27:14;17.17;;;8.60;;
42124;SDS011;27787;44.594;11.046;2023-11-22T00:29:59;14.68;;;7.55;;
42124;SDS011;27787;44.594;11.046;2023-11-22T00:32:43;14.70;;;8.30;;
42124;SDS011;27787;44.594;11.046;2023-11-22T00:35:27;15.82;;;8.60;;
42124;SDS011;27787;44.594;11.046;2023-11-22T00:38:11;24.42;;;9.07;;
42124;SDS011;27787;44.594;11.046;2023-11-22T00:40:55;15.68;;;8.75;;
42124;SDS011;27787;44.594;11.046;2023-11-22T00:43:40;14.52;;;8.05;;
42124;SDS011;27787;44.594;11.046;2023-11-22T00:46:24;15.35;;;8.07;;
42124;SDS011;27787;44.594;11.046;2023-11-22T00:49:08;15.60;;;8.13;;
42124;SDS011;27787;44.594;11.046;2023-11-22T00:51:52;19.55;;;9.00;;
42124;SDS011;27787;44.594;11.046;2023-11-22T00:54:37;16.05;;;8.15;;
42124;SDS011;27787;44.594;11.046;2023-11-22T00:57:20;14.65;;;8.48;;
42124;SDS011;27787;44.594;11.046;2023-11-22T01:00:05;15.07;;;8.80;;
42124;SDS011;27787;44.594;11.046;2023-11-22T01:02:52;17.20;;;9.32;;
42124;SDS011;27787;44.594;11.046;2023-11-22T01:05:36;18.13;;;9.93;;
42124;SDS011;27787;44.594;11.046;2023-11-22T01:08:21;22.05;;;9.18;;
42124;SDS011;27787;44.594;11.046;2023-11-22T01:11:06;16.65;;;8.98;;
42124;SDS011;27787;44.594;11.046;2023-11-22T01:13:51;17.92;;;8.77;;
42124;SDS011;27787;44.594;11.046;2023-11-22T01:16:36;15.75;;;8.50;;
42124;SDS011;27787;44.594;11.046;2023-11-22T01:19:20;18.48;;;9.23;;
42124;SDS011;27787;44.594;11.046;2023-11-22T01:22:05;18.58;;;9.23;;
42124;SDS011;27787;44.594;11.046;2023-11-22T01:24:50;16.00;;;8.93;;
42124;SDS011;27787;44.594;11.046;2023-11-22T01:30:20;27.00;;;10.32;;
42124;SDS011;27787;44.594;11.046;2023-11-22T01:33:03;19.35;;;9.75;;
42124;SDS011;27787;44.594;11.046;2023-11-22T01:35:48;18.70;;;8.38;;
42124;SDS011;27787;44.594;11.046;2023-11-22T01:38:34;18.60;;;9.80;;
42124;SDS011;27787;44.594;11.046;2023-11-22T01:41:18;16.95;;;9.68;;
42124;SDS011;27787;44.594;11.046;2023-11-22T01:44:03;19.20;;;9.63;;
42124;SDS011;27787;44.594;11.046;2023-11-22T01:46:47;20.45;;;10.63;;
42124;SDS011;27787;44.594;11.046;2023-11-22T01:49:32;17.42;;;9.85;;
42124;SDS011;27787;44.594;11.046;2023-11-22T01:52:17;18.87;;;10.43;;
42124;SDS011;27787;44.594;11.046;2023-11-22T01:55:02;18.77;;;10.80;;
42124;SDS011;27787;44.594;11.046;2023-11-22T01:57:49;20.50;;;10.30;;
42124;SDS011;27787;44.594;11.046;2023-11-22T02:00:35;18.60;;;10.38;;
42124;SDS011;27787;44.594;11.046;2023-11-22T02:03:26;24.67;;;11.85;;
42124;SDS011;27787;44.594;11.046;2023-11-22T02:06:11;20.67;;;11.38;;
42124;SDS011;27787;44.594;11.046;2023-11-22T02:08:55;19.52;;;11.35;;
42124;SDS011;27787;44.594;11.046;2023-11-22T02:11:39;27.63;;;12.02;;
42124;SDS011;27787;44.594;11.046;2023-11-22T02:14:25;22.50;;;11.57;;
42124;SDS011;27787;44.594;11.046;2023-11-22T02:17:09;20.45;;;11.23;;
42124;SDS011;27787;44.594;11.046;2023-11-22T02:19:53;19.92;;;11.48;;
42124;SDS011;27787;44.594;11.046;2023-11-22T02:22:44;23.83;;;11.73;;
42124;SDS011;27787;44.594;11.046;2023-11-22T02:25:30;24.42;;;12.77;;
42124;SDS011;27787;44.594;11.046;2023-11-22T02:28:14;24.77;;;12.73;;
42124;SDS011;27787;44.594;11.046;2023-11-22T02:30:58;22.77;;;11.48;;
42124;SDS011;27787;44.594;11.046;2023-11-22T02:33:42;19.88;;;11.48;;
42124;SDS011;27787;44.594;11.046;2023-11-22T02:36:26;20.45;;;12.05;;
42124;SDS011;27787;44.594;11.046;2023-11-22T02:39:10;21.52;;;11.57;;
42124;SDS011;27787;44.594;11.046;2023-11-22T02:41:55;20.17;;;11.80;;
42124;SDS011;27787;44.594;11.046;2023-11-22T02:44:39;24.13;;;11.35;;
42124;SDS011;27787;44.594;11.046;2023-11-22T02:47:24;27.42;;;11.55;;
42124;SDS011;27787;44.594;11.046;2023-11-22T02:50:08;27.67;;;11.93;;
42124;SDS011;27787;44.594;11.046;2023-11-22T02:52:53;24.00;;;11.98;;
42124;SDS011;27787;44.594;11.046;2023-11-22T02:55:37;23.00;;;12.13;;
42124;SDS011;27787;44.594;11.046;2023-11-22T02:58:22;20.77;;;11.82;;
42124;SDS011;27787;44.594;11.046;2023-11-22T03:01:06;21.75;;;11.93;;
42124;SDS011;27787;44.594;11.046;2023-11-22T03:03:52;23.73;;;13.02;;
42124;SDS011;27787;44.594;11.046;2023-11-22T03:06:36;26.05;;;14.27;;
42124;SDS011;27787;44.594;11.046;2023-11-22T03:09:20;28.52;;;13.43;;
42124;SDS011;27787;44.594;11.046;2023-11-22T03:12:06;24.33;;;12.88;;
42124;SDS011;27787;44.594;11.046;2023-11-22T03:17:43;29.02;;;13.65;;
42124;SDS011;27787;44.594;11.046;2023-11-22T03:20:28;28.13;;;13.82;;
42124;SDS011;27787;44.594;11.046;2023-11-22T03:23:12;25.75;;;14.55;;
42124;SDS011;27787;44.594;11.046;2023-11-22T03:25:56;27.50;;;14.75;;
42124;SDS011;27787;44.594;11.046;2023-11-22T03:28:40;29.38;;;15.30;;
42124;SDS011;27787;44.594;11.046;2023-11-22T03:31:24;34.75;;;16.33;;
42124;SDS011;27787;44.594;11.046;2023-11-22T03:34:08;29.02;;;15.93;;
42124;SDS011;27787;44.594;11.046;2023-11-22T03:36:51;30.92;;;16.15;;
42124;SDS011;27787;44.594;11.046;2023-11-22T03:39:35;30.75;;;16.63;;
42124;SDS011;27787;44.594;11.046;2023-11-22T03:42:19;32.10;;;16.83;;
42124;SDS011;27787;44.594;11.046;2023-11-22T03:45:04;33.53;;;16.73;;
42124;SDS011;27787;44.594;11.046;2023-11-22T03:47:49;31.55;;;17.10;;
42124;SDS011;27787;44.594;11.046;2023-11-22T03:50:34;32.28;;;16.90;;
42124;SDS011;27787;44.594;11.046;2023-11-22T03:53:17;32.50;;;18.52;;
42124;SDS011;27787;44.594;11.046;2023-11-22T03:56:04;29.88;;;16.83;;
42124;SDS011;27787;44.594;11.046;2023-11-22T03:58:48;32.60;;;17.00;;
42124;SDS011;27787;44.594;11.046;2023-11-22T04:01:33;40.42;;;18.65;;
42124;SDS011;27787;44.594;11.046;2023-11-22T04:04:18;37.60;;;18.33;;
42124;SDS011;27787;44.594;11.046;2023-11-22T04:07:03;36.95;;;18.00;;
42124;SDS011;27787;44.594;11.046;2023-11-22T04:09:48;35.53;;;17.48;;
42124;SDS011;27787;44.594;11.046;2023-11-22T04:12:32;38.10;;;17.70;;
42124;SDS011;27787;44.594;11.046;2023-11-22T04:15:16;35.42;;;18.15;;
42124;SDS011;27787;44.594;11.046;2023-11-22T04:18:01;37.67;;;19.33;;
42124;SDS011;27787;44.594;11.046;2023-11-22T04:20:45;36.60;;;18.17;;
42124;SDS011;27787;44.594;11.046;2023-11-22T04:23:33;39.90;;;18.85;;
42124;SDS011;27787;44.594;11.046;2023-11-22T04:26:17;45.90;;;20.95;;
42124;SDS011;27787;44.594;11.046;2023-11-22T04:29:04;45.78;;;20.90;;
42124;SDS011;27787;44.594;11.046;2023-11-22T04:31:48;41.63;;;21.15;;
42124;SDS011;27787;44.594;11.046;2023-11-22T04:34:32;38.42;;;19.88;;
42124;SDS011;27787;44.594;11.046;2023-11-22T04:37:16;46.17;;;21.38;;
42124;SDS011;27787;44.594;11.046;2023-11-22T04:40:01;39.80;;;21.13;;
42124;SDS011;27787;44.594;11.046;2023-11-22T04:42:47;42.40;;;21.33;;
42124;SDS011;27787;44.594;11.046;2023-11-22T04:45:32;41.37;;;21.03;;
42124;SDS011;27787;44.594;11.046;2023-11-22T04:48:16;42.25;;;20.05;;
42124;SDS011;27787;44.594;11.046;2023-11-22T04:51:01;45.88;;;20.90;;
42124;SDS011;27787;44.594;11.046;2023-11-22T04:53:45;43.13;;;20.70;;
42124;SDS011;27787;44.594;11.046;2023-11-22T04:56:29;42.53;;;20.58;;
42124;SDS011;27787;44.594;11.046;2023-11-22T04:59:13;45.10;;;20.98;;
42124;SDS011;27787;44.594;11.046;2023-11-22T05:01:58;48.13;;;21.63;;
42124;SDS011;27787;44.594;11.046;2023-11-22T05:04:41;39.45;;;20.95;;
42124;SDS011;27787;44.594;11.046;2023-11-22T05:07:26;37.67;;;20.50;;
42124;SDS011;27787;44.594;11.046;2023-11-22T05:10:10;45.88;;;21.30;;
42124;SDS011;27787;44.594;11.046;2023-11-22T05:12:54;46.22;;;21.80;;
42124;SDS011;27787;44.594;11.046;2023-11-22T05:15:43;44.00;;;21.35;;
42124;SDS011;27787;44.594;11.046;2023-11-22T05:18:27;44.17;;;21.48;;
42124;SDS011;27787;44.594;11.046;2023-11-22T05:21:11;45.10;;;23.05;;
42124;SDS011;27787;44.594;11.046;2023-11-22T05:23:56;46.13;;;22.48;;
42124;SDS011;27787;44.594;11.046;2023-11-22T05:26:39;40.40;;;21.42;;
42124;SDS011;27787;44.594;11.046;2023-11-22T05:29:23;44.85;;;20.90;;
42124;SDS011;27787;44.594;11.046;2023-11-22T05:32:07;44.10;;;21.85;;
42124;SDS011;27787;44.594;11.046;2023-11-22T05:34:51;46.20;;;23.13;;
42124;SDS011;27787;44.594;11.046;2023-11-22T05:37:36;45.50;;;21.85;;
42124;SDS011;27787;44.594;11.046;2023-11-22T05:40:21;51.23;;;22.57;;
42124;SDS011;27787;44.594;11.046;2023-11-22T05:43:05;44.63;;;23.17;;
42124;SDS011;27787;44.594;11.046;2023-11-22T05:45:49;50.58;;;21.25;;
42124;SDS011;27787;44.594;11.046;2023-11-22T05:48:33;42.72;;;21.60;;
42124;SDS011;27787;44.594;11.046;2023-11-22T05:51:17;41.60;;;20.80;;
42124;SDS011;27787;44.594;11.046;2023-11-22T05:54:02;44.17;;;21.05;;
42124;SDS011;27787;44.594;11.046;2023-11-22T05:56:46;48.38;;;21.88;;
42124;SDS011;27787;44.594;11.046;2023-11-22T05:59:30;43.47;;;22.23;;
42124;SDS011;27787;44.594;11.046;2023-11-22T06:02:14;49.20;;;21.95;;
42124;SDS011;27787;44.594;11.046;2023-11-22T06:04:58;52.72;;;23.00;;
42124;SDS011;27787;44.594;11.046;2023-11-22T06:07:42;44.03;;;20.88;;
42124;SDS011;27787;44.594;11.046;2023-11-22T06:10:26;49.53;;;22.58;;
42124;SDS011;27787;44.594;11.046;2023-11-22T06:13:10;43.28;;;22.30;;
42124;SDS011;27787;44.594;11.046;2023-11-22T06:15:56;48.30;;;22.42;;
42124;SDS011;27787;44.594;11.046;2023-11-22T06:18:40;49.20;;;21.95;;
42124;SDS011;27787;44.594;11.046;2023-11-22T06:21:24;46.08;;;22.00;;
42124;SDS011;27787;44.594;11.046;2023-11-22T06:24:10;45.13;;;21.88;;
42124;SDS011;27787;44.594;11.046;2023-11-22T06:26:59;43.35;;;22.25;;
42124;SDS011;27787;44.594;11.046;2023-11-22T06:29:43;41.75;;;21.63;;
42124;SDS011;27787;44.594;11.046;2023-11-22T06:32:28;45.53;;;21.20;;
42124;SDS011;27787;44.594;11.046;2023-11-22T06:35:12;46.03;;;22.73;;
42124;SDS011;27787;44.594;11.046;2023-11-22T06:37:58;52.00;;;23.35;;
42124;SDS011;27787;44.594;11.046;2023-11-22T06:40:43;47.85;;;25.50;;
42124;SDS011;27787;44.594;11.046;2023-11-22T06:43:27;46.08;;;22.92;;
42124;SDS011;27787;44.594;11.046;2023-11-22T06:46:12;43.83;;;21.02;;
42124;SDS011;27787;44.594;11.046;2023-11-22T06:48:56;44.15;;;22.20;;
42124;SDS011;27787;44.594;11.046;2023-11-22T06:51:39;41.28;;;21.48;;
42124;SDS011;27787;44.594;11.046;2023-11-22T06:54:23;40.80;;;21.02;;
42124;SDS011;27787;44.594;11.046;2023-11-22T06:57:07;40.15;;;21.92;;
42124;SDS011;27787;44.594;11.046;2023-11-22T06:59:51;45.33;;;22.02;;
42124;SDS011;27787;44.594;11.046;2023-11-22T07:02:35;47.80;;;21.13;;
42124;SDS011;27787;44.594;11.046;2023-11-22T07:05:20;41.58;;;20.63;;
42124;SDS011;27787;44.594;11.046;2023-11-22T07:08:04;42.70;;;20.95;;
42124;SDS011;27787;44.594;11.046;2023-11-22T07:10:48;42.92;;;20.40;;
42124;SDS011;27787;44.594;11.046;2023-11-22T07:13:34;43.35;;;20.90;;
42124;SDS011;27787;44.594;11.046;2023-11-22T07:16:18;39.75;;;19.05;;
42124;SDS011;27787;44.594;11.046;2023-11-22T07:19:03;42.40;;;20.83;;
42124;SDS011;27787;44.594;11.046;2023-11-22T07:21:47;43.47;;;20.73;;
42124;SDS011;27787;44.594;11.046;2023-11-22T07:24:32;41.45;;;20.15;;
42124;SDS011;27787;44.594;11.046;2023-11-22T07:27:18;40.80;;;20.95;;
42124;SDS011;27787;44.594;11.046;2023-11-22T07:30:02;48.03;;;21.02;;
42124;SDS011;27787;44.594;11.046;2023-11-22T07:32:51;34.33;;;18.55;;
42124;SDS011;27787;44.594;11.046;2023-11-22T07:35:38;40.65;;;20.70;;
42124;SDS011;27787;44.594;11.046;2023-11-22T07:38:22;49.60;;;22.30;;
42124;SDS011;27787;44.594;11.046;2023-11-22T07:41:07;41.70;;;20.67;;
42124;SDS011;27787;44.594;11.046;2023-11-22T07:43:51;39.25;;;20.58;;
42124;SDS011;27787;44.594;11.046;2023-11-22T07:46:35;37.00;;;20.48;;
42124;SDS011;27787;44.594;11.046;2023-11-22T07:49:21;41.13;;;20.42;;
42124;SDS011;27787;44.594;11.046;2023-11-22T07:52:06;41.60;;;21.30;;
42124;SDS011;27787;44.594;11.046;2023-11-22T07:54:50;42.53;;;20.77;;
42124;SDS011;27787;44.594;11.046;2023-11-22T07:57:34;41.58;;;21.13;;
42124;SDS011;27787;44.594;11.046;2023-11-22T08:00:19;36.95;;;20.05;;
42124;SDS011;27787;44.594;11.046;2023-11-22T08:03:03;42.70;;;20.45;;
42124;SDS011;27787;44.594;11.046;2023-11-22T08:05:47;33.85;;;18.55;;
42124;SDS011;27787;44.594;11.046;2023-11-22T08:08:31;45.03;;;20.42;;
42124;SDS011;27787;44.594;11.046;2023-11-22T08:11:18;38.15;;;20.20;;
42124;SDS011;27787;44.594;11.046;2023-11-22T08:14:03;38.88;;;19.60;;
42124;SDS011;27787;44.594;11.046;2023-11-22T08:16:49;39.20;;;19.98;;
42124;SDS011;27787;44.594;11.046;2023-11-22T08:19:33;36.75;;;18.63;;
42124;SDS011;27787;44.594;11.046;2023-11-22T08:22:17;37.92;;;19.35;;
42124;SDS011;27787;44.594;11.046;2023-11-22T08:25:04;38.75;;;19.48;;
42124;SDS011;27787;44.594;11.046;2023-11-22T08:27:52;39.42;;;18.95;;
42124;SDS011;27787;44.594;11.046;2023-11-22T08:30:37;39.15;;;19.65;;
42124;SDS011;27787;44.594;11.046;2023-11-22T08:33:21;32.38;;;18.58;;
42124;SDS011;27787;44.594;11.046;2023-11-22T08:36:06;34.55;;;18.42;;
42124;SDS011;27787;44.594;11.046;2023-11-22T08:38:51;38.08;;;19.25;;
42124;SDS011;27787;44.594;11.046;2023-11-22T08:41:36;37.37;;;18.97;;
42124;SDS011;27787;44.594;11.046;2023-11-22T08:44:21;37.13;;;19.00;;
42124;SDS011;27787;44.594;11.046;2023-11-22T08:47:06;35.60;;;18.83;;
42124;SDS011;27787;44.594;11.046;2023-11-22T08:49:50;39.63;;;19.92;;
42124;SDS011;27787;44.594;11.046;2023-11-22T08:52:34;45.28;;;21.42;;
42124;SDS011;27787;44.594;11.046;2023-11-22T08:55:20;35.95;;;20.05;;
42124;SDS011;27787;44.594;11.046;2023-11-22T08:58:08;37.58;;;20.15;;
42124;SDS011;27787;44.594;11.046;2023-11-22T09:00:52;40.55;;;18.55;;
42124;SDS011;27787;44.594;11.046;2023-11-22T09:03:37;40.42;;;20.20;;
42124;SDS011;27787;44.594;11.046;2023-11-22T09:06:21;40.45;;;19.52;;
42124;SDS011;27787;44.594;11.046;2023-11-22T09:09:06;39.10;;;18.88;;
42124;SDS011;27787;44.594;11.046;2023-11-22T09:11:51;40.53;;;19.07;;
42124;SDS011;27787;44.594;11.046;2023-11-22T09:14:35;37.03;;;18.95;;
42124;SDS011;27787;44.594;11.046;2023-11-22T09:17:19;39.05;;;17.77;;
42124;SDS011;27787;44.594;11.046;2023-11-22T09:20:05;37.85;;;18.35;;
42124;SDS011;27787;44.594;11.046;2023-11-22T09:25:35;37.25;;;19.35;;
42124;SDS011;27787;44.594;11.046;2023-11-22T09:28:20;36.60;;;18.17;;
42124;SDS011;27787;44.594;11.046;2023-11-22T09:31:05;33.95;;;17.80;;
42124;SDS011;27787;44.594;11.046;2023-11-22T09:33:52;38.75;;;18.45;;
42124;SDS011;27787;44.594;11.046;2023-11-22T09:36:36;32.45;;;17.88;;
42124;SDS011;27787;44.594;11.046;2023-11-22T09:39:20;34.33;;;18.58;;
42124;SDS011;27787;44.594;11.046;2023-11-22T09:42:05;28.37;;;16.80;;
42124;SDS011;27787;44.594;11.046;2023-11-22T09:44:50;35.35;;;18.05;;
42124;SDS011;27787;44.594;11.046;2023-11-22T09:47:33;36.33;;;16.65;;
42124;SDS011;27787;44.594;11.046;2023-11-22T09:50:23;30.35;;;16.70;;
42124;SDS011;27787;44.594;11.046;2023-11-22T09:53:21;39.78;;;17.23;;
42124;SDS011;27787;44.594;11.046;2023-11-22T09:56:09;33.22;;;17.48;;
42124;SDS011;27787;44.594;11.046;2023-11-22T09:58:54;32.38;;;16.40;;
42124;SDS011;27787;44.594;11.046;2023-11-22T10:01:40;24.38;;;11.23;;
42124;SDS011;27787;44.594;11.046;2023-11-22T10:04:24;21.63;;;11.32;;
42124;SDS011;27787;44.594;11.046;2023-11-22T10:07:08;22.75;;;12.27;;
42124;SDS011;27787;44.594;11.046;2023-11-22T10:09:54;23.10;;;12.23;;
42124;SDS011;27787;44.594;11.046;2023-11-22T10:12:38;23.90;;;12.02;;
42124;SDS011;27787;44.594;11.046;2023-11-22T10:15:27;20.35;;;10.52;;
42124;SDS011;27787;44.594;11.046;2023-11-22T10:18:11;22.17;;;10.68;;
42124;SDS011;27787;44.594;11.046;2023-11-22T10:20:56;24.02;;;10.32;;
42124;SDS011;27787;44.594;11.046;2023-11-22T10:23:42;21.15;;;11.02;;
42124;SDS011;27787;44.594;11.046;2023-11-22T10:26:27;20.42;;;11.02;;
42124;SDS011;27787;44.594;11.046;2023-11-22T10:29:12;21.77;;;11.50;;
42124;SDS011;27787;44.594;11.046;2023-11-22T10:31:57;20.08;;;11.48;;
42124;SDS011;27787;44.594;11.046;2023-11-22T10:34:41;22.15;;;11.18;;
42124;SDS011;27787;44.594;11.046;2023-11-22T10:37:26;19.73;;;11.20;;
42124;SDS011;27787;44.594;11.046;2023-11-22T10:40:11;20.42;;;11.48;;
42124;SDS011;27787;44.594;11.046;2023-11-22T10:42:56;19.67;;;11.55;;
42124;SDS011;27787;44.594;11.046;2023-11-22T10:45:41;24.10;;;11.70;;
42124;SDS011;27787;44.594;11.046;2023-11-22T10:48:29;21.70;;;12.00;;
42124;SDS011;27787;44.594;11.046;2023-11-22T10:51:15;18.75;;;10.45;;
42124;SDS011;27787;44.594;11.046;2023-11-22T10:54:02;20.55;;;10.18;;
42124;SDS011;27787;44.594;11.046;2023-11-22T10:56:55;21.35;;;10.00;;
42124;SDS011;27787;44.594;11.046;2023-11-22T10:59:43;24.08;;;11.43;;
42124;SDS011;27787;44.594;11.046;2023-11-22T11:02:40;20.38;;;10.07;;
42124;SDS011;27787;44.594;11.046;2023-11-22T11:05:27;19.77;;;11.10;;
42124;SDS011;27787;44.594;11.046;2023-11-22T11:08:16;22.27;;;10.32;;
42124;SDS011;27787;44.594;11.046;2023-11-22T11:11:04;22.50;;;11.35;;
42124;SDS011;27787;44.594;11.046;2023-11-22T11:13:50;20.05;;;10.07;;
42124;SDS011;27787;44.594;11.046;2023-11-22T11:16:35;22.13;;;11.05;;
42124;SDS011;27787;44.594;11.046;2023-11-22T11:19:25;18.38;;;9.55;;
42124;SDS011;27787;44.594;11.046;2023-11-22T11:22:13;15.15;;;9.85;;
42124;SDS011;27787;44.594;11.046;2023-11-22T11:25:01;16.55;;;9.07;;
42124;SDS011;27787;44.594;11.046;2023-11-22T11:27:57;24.10;;;9.55;;
42124;SDS011;27787;44.594;11.046;2023-11-22T11:33:33;18.10;;;8.70;;
42124;SDS011;27787;44.594;11.046;2023-11-22T11:36:22;16.42;;;8.88;;
42124;SDS011;27787;44.594;11.046;2023-11-22T11:39:12;16.27;;;7.85;;
42124;SDS011;27787;44.594;11.046;2023-11-22T11:42:07;17.08;;;7.85;;
42124;SDS011;27787;44.594;11.046;2023-11-22T11:47:42;14.13;;;7.55;;
42124;SDS011;27787;44.594;11.046;2023-11-22T11:50:27;18.25;;;7.38;;
42124;SDS011;27787;44.594;11.046;2023-11-22T11:53:12;15.02;;;8.02;;
42124;SDS011;27787;44.594;11.046;2023-11-22T11:55:56;18.02;;;8.02;;
42124;SDS011;27787;44.594;11.046;2023-11-22T11:58:42;15.80;;;7.72;;
42124;SDS011;27787;44.594;11.046;2023-11-22T12:01:27;12.65;;;6.72;;
42124;SDS011;27787;44.594;11.046;2023-11-22T12:04:16;13.77;;;7.13;;
42124;SDS011;27787;44.594;11.046;2023-11-22T12:07:00;12.85;;;6.63;;
42124;SDS011;27787;44.594;11.046;2023-11-22T12:09:45;12.07;;;6.70;;
42124;SDS011;27787;44.594;11.046;2023-11-22T12:12:31;17.70;;;7.75;;
42124;SDS011;27787;44.594;11.046;2023-11-22T12:15:15;12.55;;;6.60;;
42124;SDS011;27787;44.594;11.046;2023-11-22T12:17:59;14.13;;;6.10;;
42124;SDS011;27787;44.594;11.046;2023-11-22T12:20:57;10.73;;;5.97;;
42124;SDS011;27787;44.594;11.046;2023-11-22T12:23:42;9.77;;;5.63;;
42124;SDS011;27787;44.594;11.046;2023-11-22T12:26:29;12.73;;;5.88;;
42124;SDS011;27787;44.594;11.046;2023-11-22T12:29:17;10.55;;;4.78;;
42124;SDS011;27787;44.594;11.046;2023-11-22T12:32:04;10.43;;;4.78;;
42124;SDS011;27787;44.594;11.046;2023-11-22T12:34:49;8.65;;;3.75;;
42124;SDS011;27787;44.594;11.046;2023-11-22T12:37:36;6.75;;;3.80;;
42124;SDS011;27787;44.594;11.046;2023-11-22T12:40:21;6.70;;;3.65;;
42124;SDS011;27787;44.594;11.046;2023-11-22T12:43:05;10.40;;;3.50;;
42124;SDS011;27787;44.594;11.046;2023-11-22T12:46:01;8.20;;;3.85;;
42124;SDS011;27787;44.594;11.046;2023-11-22T12:48:46;7.33;;;3.40;;
42124;SDS011;27787;44.594;11.046;2023-11-22T12:51:30;8.48;;;3.40;;
42124;SDS011;27787;44.594;11.046;2023-11-22T12:54:14;14.88;;;3.80;;
42124;SDS011;27787;44.594;11.046;2023-11-22T12:56:59;8.30;;;3.58;;
42124;SDS011;27787;44.594;11.046;2023-11-22T12:59:43;8.95;;;3.90;;
42124;SDS011;27787;44.594;11.046;2023-11-22T13:02:27;6.30;;;3.75;;
42124;SDS011;27787;44.594;11.046;2023-11-22T13:05:11;10.60;;;3.53;;
42124;SDS011;27787;44.594;11.046;2023-11-22T13:07:59;10.65;;;3.50;;
42124;SDS011;27787;44.594;11.046;2023-11-22T13:10:43;6.97;;;3.45;;
42124;SDS011;27787;44.594;11.046;2023-11-22T13:13:27;8.68;;;3.38;;
42124;SDS011;27787;44.594;11.046;2023-11-22T13:16:13;7.13;;;3.30;;
42124;SDS011;27787;44.594;11.046;2023-11-22T13:19:00;9.35;;;3.00;;
42124;SDS011;27787;44.594;11.046;2023-11-22T13:21:44;8.68;;;3.40;;
42124;SDS011;27787;44.594;11.046;2023-11-22T13:24:28;6.15;;;2.80;;
42124;SDS011;27787;44.594;11.046;2023-11-22T13:27:12;8.55;;;2.60;;
42124;SDS011;27787;44.594;11.046;2023-11-22T13:29:56;7.38;;;2.63;;
42124;SDS011;27787;44.594;11.046;2023-11-22T13:32:42;5.13;;;2.67;;
42124;SDS011;27787;44.594;11.046;2023-11-22T13:35:27;4.93;;;2.30;;
42124;SDS011;27787;44.594;11.046;2023-11-22T13:38:15;6.38;;;2.00;;
42124;SDS011;27787;44.594;11.046;2023-11-22T13:40:59;4.30;;;2.58;;
42124;SDS011;27787;44.594;11.046;2023-11-22T13:43:43;8.45;;;2.40;;
42124;SDS011;27787;44.594;11.046;2023-11-22T13:46:30;6.72;;;2.10;;
42124;SDS011;27787;44.594;11.046;2023-11-22T13:49:14;6.85;;;2.65;;
42124;SDS011;27787;44.594;11.046;2023-11-22T13:51:59;6.75;;;3.15;;
42124;SDS011;27787;44.594;11.046;2023-11-22T13:54:43;4.63;;;2.67;;
42124;SDS011;27787;44.594;11.046;2023-11-22T13:57:27;7.55;;;2.45;;
42124;SDS011;27787;44.594;11.046;2023-11-22T14:00:11;3.53;;;1.70;;
42124;SDS011;27787;44.594;11.046;2023-11-22T14:03:02;6.15;;;2.50;;
42124;SDS011;27787;44.594;11.046;2023-11-22T14:05:49;4.63;;;2.30;;
42124;SDS011;27787;44.594;11.046;2023-11-22T14:08:34;4.60;;;2.35;;
42124;SDS011;27787;44.594;11.046;2023-11-22T14:11:18;4.47;;;2.15;;
42124;SDS011;27787;44.594;11.046;2023-11-22T14:14:02;10.05;;;2.50;;
42124;SDS011;27787;44.594;11.046;2023-11-22T14:16:47;7.03;;;2.33;;
42124;SDS011;27787;44.594;11.046;2023-11-22T14:19:32;10.63;;;2.20;;
42124;SDS011;27787;44.594;11.046;2023-11-22T14:22:16;6.57;;;2.10;;
42124;SDS011;27787;44.594;11.046;2023-11-22T14:25:04;6.03;;;2.05;;
42124;SDS011;27787;44.594;11.046;2023-11-22T14:27:53;5.15;;;1.90;;
42124;SDS011;27787;44.594;11.046;2023-11-22T14:30:38;6.72;;;1.83;;
42124;SDS011;27787;44.594;11.046;2023-11-22T14:33:24;5.45;;;2.00;;
42124;SDS011;27787;44.594;11.046;2023-11-22T14:36:08;4.88;;;1.70;;
42124;SDS011;27787;44.594;11.046;2023-11-22T14:38:52;5.13;;;1.83;;
42124;SDS011;27787;44.594;11.046;2023-11-22T14:41:40;8.57;;;1.67;;
42124;SDS011;27787;44.594;11.046;2023-11-22T14:44:24;4.28;;;1.85;;
42124;SDS011;27787;44.594;11.046;2023-11-22T14:47:08;6.32;;;1.95;;
42124;SDS011;27787;44.594;11.046;2023-11-22T14:50:09;7.07;;;1.60;;
42124;SDS011;27787;44.594;11.046;2023-11-22T14:52:55;8.68;;;1.80;;
42124;SDS011;27787;44.594;11.046;2023-11-22T14:55:39;7.97;;;1.52;;
42124;SDS011;27787;44.594;11.046;2023-11-22T14:58:25;8.15;;;1.88;;
42124;SDS011;27787;44.594;11.046;2023-11-22T15:01:09;7.65;;;1.60;;
42124;SDS011;27787;44.594;11.046;2023-11-22T15:03:54;3.13;;;1.30;;
42124;SDS011;27787;44.594;11.046;2023-11-22T15:06:38;4.65;;;1.35;;
42124;SDS011;27787;44.594;11.046;2023-11-22T15:09:23;3.15;;;1.35;;
42124;SDS011;27787;44.594;11.046;2023-11-22T15:12:07;7.47;;;1.48;;
42124;SDS011;27787;44.594;11.046;2023-11-22T15:14:53;2.60;;;1.30;;
42124;SDS011;27787;44.594;11.046;2023-11-22T15:17:38;4.25;;;1.42;;
42124;SDS011;27787;44.594;11.046;2023-11-22T15:20:23;4.50;;;1.52;;
42124;SDS011;27787;44.594;11.046;2023-11-22T15:23:07;4.93;;;1.50;;
42124;SDS011;27787;44.594;11.046;2023-11-22T15:25:51;7.90;;;1.90;;
42124;SDS011;27787;44.594;11.046;2023-11-22T15:28:37;11.20;;;1.88;;
42124;SDS011;27787;44.594;11.046;2023-11-22T15:31:21;7.22;;;2.05;;
42124;SDS011;27787;44.594;11.046;2023-11-22T15:34:07;5.38;;;1.33;;
42124;SDS011;27787;44.594;11.046;2023-11-22T15:36:51;6.30;;;1.42;;
42124;SDS011;27787;44.594;11.046;2023-11-22T15:39:35;4.88;;;1.02;;
42124;SDS011;27787;44.594;11.046;2023-11-22T15:42:20;9.75;;;1.95;;
42124;SDS011;27787;44.594;11.046;2023-11-22T15:45:04;8.40;;;1.52;;
42124;SDS011;27787;44.594;11.046;2023-11-22T15:47:50;8.80;;;2.20;;
42124;SDS011;27787;44.594;11.046;2023-11-22T15:50:34;6.05;;;1.95;;
42124;SDS011;27787;44.594;11.046;2023-11-22T15:53:18;11.77;;;2.30;;
42124;SDS011;27787;44.594;11.046;2023-11-22T15:56:02;6.13;;;2.38;;
42124;SDS011;27787;44.594;11.046;2023-11-22T15:58:47;8.30;;;1.92;;
42124;SDS011;27787;44.594;11.046;2023-11-22T16:01:33;10.68;;;2.10;;
42124;SDS011;27787;44.594;11.046;2023-11-22T16:04:17;4.50;;;1.67;;
42124;SDS011;27787;44.594;11.046;2023-11-22T16:07:01;10.48;;;2.08;;
42124;SDS011;27787;44.594;11.046;2023-11-22T16:09:46;8.43;;;1.83;;
42124;SDS011;27787;44.594;11.046;2023-11-22T16:12:30;3.78;;;1.63;;
42124;SDS011;27787;44.594;11.046;2023-11-22T16:15:16;3.38;;;1.55;;